Rodanthe, North Carolina
Current Conditions -  °F | °C
As of 6:55 PM on Friday 19 Dec 2014 (Local Time) from KMQI Reporting Station
Clear Clear  
Wind Chill: 39°   Ceiling: Unl
Heat Index: 39°   Visibility: 10mi
Dew Point: 32°   Wind: 3mph
Humidity: 75%   Direction: 10°N
Pressure: 30.2"   Gusts: NA
Location:  35.59°N, 75.47°W
Report Text: KMQI 192355Z AUTO 01003KT 10SM CLR 04/00 A3020 RMK AO2 T00400000 10071 20035
Loading
Personal Weather Stations






























Interactive Weather Map New forecast layout! Learn more

10-Day Weather Forecast

Advertisements
Track Severe Weather on mobile